Flight Track Log - Related Links

Times and Time Zones

All times are in EDT time to prevent confusion due to time zone crossing. See the UAL256 flight status page for this flight to view local times or setup timezone preferences in your user account.

Time Position Orientation Groundspeed Altitude Reporting Facility
EDT Latitude Longitude Course Direction KTS MPH feet Rate Location/Type
Sat 03:06:08 PM 38.9000 -77.4333 270° West 184 212 1,600  Level Potomac TRACON
Sat 03:07:08 PM 38.8500 -77.4667 207° Southwest 250 288 2,800 1,900 Climbing Potomac TRACON
Sat 03:08:00 PM 38.8056 -77.8455 228° Southwest  Level FlightAware Approximate
Sat 03:08:08 PM 38.8000 -77.5500 232° Southwest 283 326 5,400  Level Potomac TRACON
Sat 03:09:00 PM 38.7952 -77.9641 288° West  Level FlightAware Approximate
Sat 03:10:00 PM 38.8311 -78.1078 288° West  Level FlightAware Approximate
Sat 03:10:03 PM 38.7756 -77.7247 260° West 292 336 10,100  Level Washington Center
Sat 03:11:00 PM 38.8500 -78.2550 270° West  Level FlightAware Approximate
Sat 03:11:01 PM 38.7983 -77.8506 283° West 320 368 10,800  Level Washington Center
Sat 03:12:02 PM 38.8208 -77.9844 282° West 363 418 13,000 2,066 Climbing Washington Center
Sat 03:13:03 PM 38.8431 -78.1264 281° West 391 450 15,000 1,537 Climbing Washington Center
Sat 03:14:03 PM 38.8542 -78.2761 275° West 411 473 16,100 1,008 Climbing Washington Center
Sat 03:15:02 PM 38.8528 -78.4306 269° West 424 488 17,000 458 Climbing Washington Center
Sat 03:16:01 PM 38.8511 -78.5850 269° West 431 496 17,000 756 Level Washington Center
Sat 03:17:01 PM 38.8492 -78.7397 269° West 437 503 18,500 1,388 Climbing Washington Center
Sat 03:18:02 PM 38.8469 -78.8994 269° West 442 509 19,800 1,250 Climbing Washington Center
Sat 03:19:01 PM 38.8425 -79.0619 268° West 452 520 21,000 1,361 Climbing Washington Center
Sat 03:20:01 PM 38.8356 -79.2269 267° West 459 528 22,500 1,140 Climbing Washington Center
Sat 03:21:02 PM 38.8075 -79.3933 258° West 466 536 23,300 984 Climbing Washington Center
Sat 03:22:03 PM 38.7764 -79.5781 258° West 471 542 24,500 1,050 Climbing Washington Center
Sat 03:23:02 PM 38.7458 -79.7442 257° West 478 550 25,400 706 Climbing Washington Center
Sat 03:24:02 PM 38.7175 -79.8969 257° West 488 562 25,900 972 Climbing Washington Center
Sat 03:26:01 PM 38.6553 -80.2072 256° West 475 547 28,300 1,133 Climbing Indianapolis Center
Sat 03:27:02 PM 38.6200 -80.4031 257° West 473 544 29,300 829 Climbing Indianapolis Center
Sat 03:28:04 PM 38.6028 -80.5706 263° West 478 550 30,000 726 Climbing Indianapolis Center
Sat 03:29:06 PM 38.6022 -80.7408 270° West 477 549 30,800 829 Climbing Indianapolis Center
Sat 03:30:07 PM 38.6144 -80.9092 275° West 478 550 31,700 878 Climbing Indianapolis Center
Sat 03:31:09 PM 38.6247 -81.0781 275° West 476 548 32,600 683 Climbing Indianapolis Center
Sat 03:32:10 PM 38.6358 -81.2483 275° West 479 551 33,100 683 Climbing Indianapolis Center
Sat 03:33:12 PM 38.6472 -81.4386 274° West 477 549 34,000 439 Climbing Indianapolis Center
Sat 03:34:13 PM 38.6583 -81.6083 275° West 478 550 34,000  Level Indianapolis Center
Sat 03:35:15 PM 38.6686 -81.7722 275° West 482 555 34,000  Level Indianapolis Center
Sat 03:36:17 PM 38.6781 -81.9422 274° West 479 551 34,000  Level Indianapolis Center
Sat 03:37:18 PM 38.6881 -82.1122 274° West 477 549 34,000  Level Indianapolis Center
Sat 03:38:20 PM 38.6969 -82.2828 274° West 480 552 34,000  Level Indianapolis Center
Sat 03:39:21 PM 38.7061 -82.4533 274° West 480 552 34,000  Level Indianapolis Center
Sat 03:40:23 PM 38.7169 -82.6600 274° West 483 556 34,000  Level Indianapolis Center
Sat 03:41:24 PM 38.7256 -82.8333 274° West 487 560 34,000  Level Indianapolis Center
Sat 03:42:26 PM 38.7350 -83.0047 274° West 484 557 34,000  Level Indianapolis Center
Sat 03:43:28 PM 38.7422 -83.1733 273° West 484 557 34,000 -49 Level Indianapolis Center
Sat 03:44:29 PM 38.7500 -83.3483 273° West 487 560 33,900  Descending Indianapolis Center
Sat 03:45:31 PM 38.7589 -83.5236 274° West 487 560 34,000 49 Climbing Indianapolis Center
Sat 03:46:32 PM 38.7667 -83.6981 273° West 486 559 34,000  Level Indianapolis Center
Sat 03:47:34 PM 38.7728 -83.8736 273° West 487 560 34,000  Level Indianapolis Center
Sat 03:48:35 PM 38.7814 -84.0778 273° West 487 560 34,000 -49 Level Indianapolis Center
Sat 03:49:37 PM 38.7886 -84.2519 273° West 485 558 33,900 -48 Descending Indianapolis Center
Sat 03:50:39 PM 38.7944 -84.4269 273° West 485 558 33,900 49 Level Indianapolis Center
Sat 03:51:40 PM 38.8008 -84.5908 273° West 484 557 34,000 49 Climbing Indianapolis Center
Sat 03:52:42 PM 38.8061 -84.7622 272° West 484 557 34,000  Level Indianapolis Center
Sat 03:53:43 PM 38.8125 -84.9339 273° West 484 557 34,000  Level Indianapolis Center
Sat 03:54:45 PM 38.8175 -85.1067 272° West 486 559 34,000  Level Indianapolis Center
Sat 03:55:46 PM 38.8239 -85.3125 272° West 483 556 34,000  Level Indianapolis Center
Sat 03:56:48 PM 38.8294 -85.4822 272° West 478 550 34,000  Level Indianapolis Center
Sat 03:57:49 PM 38.8342 -85.6533 272° West 479 551 34,000  Level Indianapolis Center
Sat 03:58:51 PM 38.8381 -85.8225 272° West 477 549 34,000  Level Indianapolis Center
Sat 03:59:52 PM 38.8422 -85.9756 272° West 477 549 34,000  Level Indianapolis Center
Sat 04:00:54 PM 38.8461 -86.1803 271° West 478 550 34,000  Level Indianapolis Center
Sat 04:01:55 PM 38.8500 -86.3506 272° West 478 550 34,000  Level Indianapolis Center
Sat 04:02:57 PM 38.8533 -86.5219 271° West 481 554 34,000  Level Indianapolis Center
Sat 04:03:58 PM 38.8567 -86.6947 271° West 484 557 34,000  Level Indianapolis Center
Sat 04:05:00 PM 38.8586 -86.8669 271° West 484 557 34,000  Level Indianapolis Center
Sat 04:06:01 PM 38.8619 -87.0408 271° West 488 562 34,000  Level Indianapolis Center
Sat 04:07:03 PM 38.8642 -87.2144 271° West 489 563 34,000  Level Indianapolis Center
Sat 04:08:04 PM 38.8661 -87.3886 271° West 490 564 34,000  Level Indianapolis Center
Sat 04:09:05 PM 38.8692 -87.5997 271° West 494 568 34,000  Level Indianapolis Center
Sat 04:10:07 PM 38.8703 -87.7747 271° West 493 567 34,000  Level Indianapolis Center
Sat 04:11:08 PM 38.8719 -87.9531 271° West 498 573 34,000  Level Indianapolis Center
Sat 04:11:39 PM 38.8703 -88.0261 268° West 496 571 34,000  Level Kansas City Center
Sat 04:12:40 PM 38.8711 -88.2042 270° West 497 572 34,000  Level Kansas City Center
Sat 04:13:42 PM 38.8711 -88.4197 270° West 501 577 34,000  Level Kansas City Center
Sat 04:14:44 PM 38.8717 -88.6000 270° West 503 579 34,000  Level Kansas City Center
Sat 04:15:45 PM 38.8717 -88.7828 270° West 505 581 34,000  Level Kansas City Center
Sat 04:16:47 PM 38.8758 -88.9650 272° West 509 586 34,000  Level Kansas City Center
Sat 04:17:48 PM 38.8836 -89.1528 273° West 513 590 34,000  Level Kansas City Center
Sat 04:18:50 PM 38.8914 -89.3519 273° West 520 598 34,000  Level Kansas City Center
Sat 04:19:52 PM 38.9003 -89.5361 274° West 521 600 34,000  Level Kansas City Center
Sat 04:20:53 PM 38.9058 -89.7044 272° West 527 606 34,000  Level Kansas City Center
Sat 04:21:55 PM 38.9122 -89.8906 273° West 528 608 34,000  Level Kansas City Center
Sat 04:22:56 PM 38.9208 -90.0908 273° West 522 601 34,000  Level Kansas City Center
Sat 04:23:58 PM 38.9272 -90.2792 273° West 526 605 34,000  Level Kansas City Center
Sat 04:25:00 PM 38.9339 -90.5064 272° West 528 608 34,000  Level Kansas City Center
Sat 04:26:01 PM 38.9389 -90.6953 272° West 528 608 34,000  Level Kansas City Center
Sat 04:27:03 PM 38.9433 -90.8533 272° West 529 609 34,000  Level Kansas City Center
Sat 04:28:04 PM 38.9497 -91.0781 272° West 528 608 34,000  Level Kansas City Center
Sat 04:29:06 PM 38.9533 -91.2661 271° West 529 609 34,000 98 Level Kansas City Center
Sat 04:30:07 PM 38.9581 -91.4528 272° West 525 604 34,200 976 Climbing Kansas City Center
Sat 04:31:09 PM 38.9617 -91.6333 272° West 514 592 36,000 878 Climbing Kansas City Center
Sat 04:32:10 PM 38.9647 -91.8028 271° West 491 565 36,000  Level Kansas City Center
Sat 04:33:12 PM 38.9667 -91.9775 271° West 487 560 36,000  Level Kansas City Center
Sat 04:34:13 PM 38.9694 -92.1853 271° West 486 559 36,000  Level Kansas City Center
Sat 04:35:15 PM 38.9719 -92.3600 271° West 487 560 36,000  Level Kansas City Center
Sat 04:36:17 PM 38.9742 -92.5347 271° West 490 564 36,000  Level Kansas City Center
Sat 04:37:18 PM 38.9761 -92.7089 271° West 489 563 36,000  Level Kansas City Center
Sat 04:38:20 PM 38.9781 -92.8831 271° West 489 563 36,000  Level Kansas City Center
Sat 04:39:21 PM 38.9789 -93.0558 270° West 486 559 36,000  Level Kansas City Center
Sat 04:40:23 PM 38.9800 -93.2328 271° West 490 564 36,000  Level Kansas City Center
Sat 04:41:24 PM 38.9806 -93.4075 270° West 491 565 36,000 -49 Level Kansas City Center
Sat 04:42:26 PM 38.9800 -93.6206 270° West 496 571 35,900  Descending Kansas City Center
Sat 04:43:27 PM 38.9831 -93.7878 271° West 485 558 36,000 49 Climbing Kansas City Center
Sat 04:44:29 PM 38.9831 -93.9528 270° West 482 555 36,000  Level Kansas City Center
Sat 04:45:31 PM 38.9833 -94.1475 270° West 487 560 36,000 -244 Level Kansas City Center
Sat 04:46:32 PM 38.9825 -94.3131 270° West 483 556 35,500 -780 Descending Kansas City Center
Sat 04:47:34 PM 38.9822 -94.4814 270° West 490 564 34,400 -1,610 Descending Kansas City Center
Sat 04:48:35 PM 38.9803 -94.6844 269° West 506 582 32,200 -2,000 Descending Kansas City Center
Sat 04:49:37 PM 38.9797 -94.8664 270° West 525 604 30,300 -1,073 Descending Kansas City Center
Sat 04:50:38 PM 38.9778 -95.0742 269° West 517 595 30,000 -146 Descending Kansas City Center
Sat 04:51:40 PM 38.9756 -95.2547 269° West 520 598 30,000 -145 Level Kansas City Center
Sat 04:52:42 PM 38.9731 -95.4328 269° West 515 593 29,700 -976 Descending Kansas City Center
Sat 04:53:43 PM 38.9697 -95.6375 269° West 510 587 28,000 -829 Descending Kansas City Center
Sat 04:54:45 PM 38.9681 -95.8144 269° West 514 592 28,000  Level Kansas City Center
Sat 04:55:47 PM 38.9642 -96.0178 269° West 507 583 28,000  Level Kansas City Center
Sat 04:56:48 PM 38.9603 -96.1897 268° West 503 579 28,000  Level Kansas City Center
Sat 04:57:50 PM 38.9556 -96.3614 268° West 501 577 28,000  Level Kansas City Center
Sat 04:58:51 PM 38.9511 -96.5425 268° West 503 579 28,000  Level Kansas City Center
Sat 04:59:53 PM 38.9464 -96.7214 268° West 502 578 28,000  Level Kansas City Center
Sat 05:00:54 PM 38.9453 -96.9019 270° West 505 581 28,000  Level Kansas City Center
Sat 05:01:56 PM 38.9400 -97.1142 268° West 498 573 28,000  Level Kansas City Center
Sat 05:02:57 PM 38.9350 -97.2897 268° West 495 570 28,000  Level Kansas City Center
Sat 05:03:59 PM 38.9294 -97.4656 268° West 494 568 28,000  Level Kansas City Center
Sat 05:05:00 PM 38.9228 -97.6372 267° West 488 562 28,000  Level Kansas City Center
Sat 05:06:02 PM 38.8911 -97.8283 258° West 491 565 28,000  Level Kansas City Center
Sat 05:07:03 PM 38.8692 -97.9803 260° West 492 566 28,000  Level Kansas City Center
Sat 05:08:05 PM 38.8425 -98.1486 259° West 485 558 28,000  Level Kansas City Center
Sat 05:09:06 PM 38.8158 -98.3164 259° West 483 556 28,000  Level Kansas City Center
Sat 05:10:08 PM 38.7828 -98.5164 258° West 481 554 28,000  Level Kansas City Center
Sat 05:11:09 PM 38.7561 -98.6839 259° West 481 554 28,000  Level Kansas City Center
Sat 05:12:11 PM 38.7289 -98.8508 258° West 480 552 28,000  Level Kansas City Center
Sat 05:13:12 PM 38.7017 -99.0139 258° West 473 544 28,000  Level Kansas City Center
Sat 05:14:14 PM 38.6756 -99.1764 258° West 469 540 28,000  Level Kansas City Center
Sat 05:15:15 PM 38.6478 -99.3408 258° West 472 543 28,000  Level Kansas City Center
Sat 05:16:17 PM 38.6194 -99.5058 258° West 474 545 28,000  Level Kansas City Center
Sat 05:17:18 PM 38.5883 -99.6864 258° West 473 544 28,000  Level Kansas City Center
Sat 05:18:20 PM 38.5569 -99.8658 257° West 467 537 28,000  Level Kansas City Center
Sat 05:19:02 PM 38.5383 -99.9675 257° West 466 536 28,000  Level Denver Center
Sat 05:20:04 PM 38.5067 -100.1461 257° West 464 534 28,000  Level Denver Center
Sat 05:21:06 PM 38.4797 -100.2969 257° West 458 527 28,000  Level Denver Center
Sat 05:22:07 PM 38.4483 -100.4739 257° West 458 527 28,000  Level Denver Center
Sat 05:23:09 PM 38.4203 -100.6250 257° West 459 528 28,000  Level Denver Center
Sat 05:24:11 PM 38.3931 -100.7747 257° West 456 525 28,000  Level Denver Center
Sat 05:25:12 PM 38.3622 -100.9481 257° West 452 520 28,000  Level Denver Center
Sat 05:26:14 PM 38.3342 -101.0944 256° West 449 517 28,000  Level Denver Center
Sat 05:27:16 PM 38.3019 -101.2661 257° West 448 516 28,000  Level Denver Center
Sat 05:28:17 PM 38.2744 -101.4128 257° West 447 514 28,000  Level Denver Center
Sat 05:29:19 PM 38.2419 -101.5842 256° West 448 516 28,000 532 Level Denver Center
Sat 05:30:21 PM 38.2144 -101.7297 257° West 444 511 29,100 1,220 Climbing Denver Center
Sat 05:31:22 PM 38.1844 -101.8983 257° West 439 505 30,500 1,415 Climbing Denver Center
Sat 05:32:24 PM 38.1614 -102.0386 258° West 428 493 32,000 1,306 Climbing Denver Center
Sat 05:33:26 PM 38.1356 -102.1992 258° West 418 481 33,200 976 Climbing Denver Center
Sat 05:34:27 PM 38.1128 -102.3342 258° West 411 473 34,000 390 Climbing Denver Center
Sat 05:35:29 PM 38.0897 -102.4664 258° West 405 466 34,000  Level Denver Center
Sat 05:36:31 PM 38.0653 -102.6219 259° West 403 464 34,000 195 Level Denver Center
Sat 05:37:32 PM 38.0417 -102.7542 257° West 403 464 34,400 634 Climbing Denver Center
Sat 05:38:34 PM 38.0144 -102.9089 257° West 403 464 35,300 780 Climbing Denver Center
Sat 05:39:35 PM 37.9928 -103.0394 258° West 398 458 36,000 341 Climbing Denver Center
Sat 05:40:37 PM 37.9658 -103.1897 257° West 395 455 36,000  Level Denver Center
Sat 05:41:39 PM 37.9422 -103.3175 257° West 390 449 36,000  Level Denver Center
Sat 05:42:40 PM 37.9197 -103.4461 258° West 392 451 36,000  Level Denver Center
Sat 05:43:42 PM 37.8931 -103.5950 257° West 391 450 36,000  Level Denver Center
Sat 05:44:44 PM 37.8706 -103.7219 257° West 389 448 36,000  Level Denver Center
Sat 05:45:45 PM 37.8472 -103.8489 257° West 389 448 36,000  Level Denver Center
Sat 05:46:47 PM 37.8203 -103.9975 257° West 391 450 36,000  Level Denver Center
Sat 05:47:48 PM 37.7928 -104.1447 257° West 390 449 36,000  Level Denver Center
Sat 05:48:50 PM 37.7692 -104.2711 257° West 390 449 36,000  Level Denver Center
Sat 05:49:52 PM 37.7411 -104.4175 256° West 387 445 36,000  Level Denver Center
Sat 05:50:53 PM 37.7175 -104.5447 257° West 389 448 36,000  Level Denver Center
Sat 05:52:07 PM 37.6897 -104.6931 257° West 391 450 36,000  Level Denver Center
Sat 05:53:09 PM 37.6608 -104.8419 256° West 392 451 36,000  Level Denver Center
Sat 05:54:10 PM 37.6317 -104.9908 256° West 392 451 36,000  Level Denver Center
Sat 05:55:12 PM 37.6069 -105.1192 256° West 395 455 36,000  Level Denver Center
Sat 05:56:13 PM 37.5778 -105.2664 256° West 389 448 36,000  Level Denver Center
Sat 05:57:15 PM 37.5567 -105.3742 256° West 395 455 36,000  Level Denver Center
Sat 05:58:17 PM 37.5242 -105.5414 256° West 394 453 36,000  Level Denver Center
Sat 05:59:18 PM 37.4986 -105.6692 256° West 395 455 36,000  Level Denver Center
Sat 06:00:20 PM 37.4717 -105.7967 255° West 394 453 36,000  Level Denver Center
Sat 06:01:21 PM 37.4436 -105.9453 257° West 391 450 36,000  Level Denver Center
Sat 06:02:23 PM 37.4158 -106.0722 255° West 394 453 36,000  Level Denver Center
Sat 06:03:36 PM 37.3864 -106.2206 256° West 392 451 36,000  Level Denver Center
Sat 06:04:38 PM 37.3567 -106.3692 256° West 394 453 36,000  Level Denver Center
Sat 06:05:40 PM 37.3247 -106.5186 255° West 396 456 36,000  Level Denver Center
Sat 06:06:41 PM 37.2994 -106.6450 256° West 391 450 36,000  Level Denver Center
Sat 06:07:43 PM 37.2678 -106.7911 255° West 390 449 36,000  Level Denver Center
Sat 06:08:44 PM 37.2419 -106.9172 256° West 391 450 36,000  Level Denver Center
Sat 06:09:46 PM 37.2153 -107.0444 255° West 393 452 36,000  Level Denver Center
Sat 06:10:47 PM 37.1831 -107.1919 255° West 393 452 36,000  Level Denver Center
Sat 06:11:49 PM 37.1561 -107.3186 255° West 394 453 36,000  Level Denver Center
Sat 06:12:51 PM 37.1231 -107.4667 254° West 395 455 36,000  Level Denver Center
Sat 06:13:52 PM 37.0961 -107.5958 255° West 400 460 36,000  Level Denver Center
Sat 06:14:53 PM 37.0731 -107.7011 255° West 396 456 36,000  Level Denver Center
Sat 06:15:55 PM 37.0361 -107.8714 255° West 395 455 36,000  Level Denver Center
Sat 06:16:57 PM 37.0078 -107.9981 254° West 395 455 36,000  Level Denver Center
Sat 06:17:59 PM 36.9747 -108.1481 255° West 400 460 36,000  Level Denver Center
Sat 06:19:00 PM 36.9456 -108.2747 254° West 399 459 36,000  Level Denver Center
Sat 06:20:02 PM 36.9128 -108.4236 255° West 398 458 36,000  Level Denver Center
Sat 06:21:03 PM 36.8836 -108.5511 254° West 399 459 36,000  Level Denver Center
Sat 06:22:06 PM 36.8494 -108.6983 254° West 397 457 36,000  Level Denver Center
Sat 06:23:07 PM 36.8206 -108.8264 254° West 400 460 36,000  Level Denver Center
Sat 06:24:08 PM 36.7914 -108.9525 254° West 398 458 36,000  Level Denver Center
Sat 06:25:10 PM 36.7561 -109.1028 254° West 403 464 36,000  Level Denver Center
Sat 06:26:12 PM 36.7267 -109.2297 254° West 401 461 36,000  Level Denver Center
Sat 06:27:13 PM 36.6919 -109.3772 254° West 400 460 36,000  Level Denver Center
Sat 06:28:15 PM 36.6625 -109.5028 254° West 397 457 36,000  Level Denver Center
Sat 06:29:16 PM 36.6278 -109.6497 254° West 398 458 36,000  Level Denver Center
Sat 06:30:18 PM 36.5969 -109.7775 253° West 402 463 36,000  Level Denver Center
Sat 06:31:32 PM 36.5611 -109.9258 253° West 401 461 36,000  Level Denver Center
Sat 06:32:33 PM 36.5256 -110.0742 253° West 402 463 36,000  Level Denver Center
Sat 06:33:35 PM 36.4894 -110.2233 253° West 401 461 36,000  Level Denver Center
Sat 06:34:37 PM 36.4575 -110.3561 253° West 401 461 36,000  Level Denver Center
Sat 06:35:38 PM 36.4258 -110.4878 253° West 399 459 36,000  Level Denver Center
Sat 06:36:40 PM 36.3925 -110.6194 253° West 400 460 36,000  Level Denver Center
Sat 06:37:41 PM 36.3586 -110.7514 252° West 401 461 36,000  Level Denver Center
Sat 06:38:43 PM 36.3269 -110.8825 253° West 398 458 36,000  Level Denver Center
Sat 06:39:44 PM 36.2928 -111.0139 252° West 400 460 36,000  Level Denver Center
Sat 06:40:46 PM 36.2678 -111.1192 254° West 399 459 36,000  Level Denver Center
Sat 06:41:47 PM 36.2206 -111.3014 252° West 397 457 36,000  Level Denver Center
Sat 06:42:49 PM 36.1764 -111.4297 247° West 400 460 36,000  Level Denver Center
Sat 06:43:51 PM 36.1339 -111.5589 248° West 404 465 36,000  Level Denver Center
Sat 06:44:52 PM 36.0906 -111.6872 247° West 403 464 36,000  Level Denver Center
Sat 06:45:54 PM 36.0478 -111.8156 248° West 404 465 36,000  Level Denver Center
Sat 06:46:32 PM 36.0214 -111.8922 247° West 399 459 36,000  Level Los Angeles Center
Sat 06:47:34 PM 35.9747 -112.0311 247° West 400 460 36,000  Level Los Angeles Center
Sat 06:48:35 PM 35.9325 -112.1556 247° West 398 458 36,000  Level Los Angeles Center
Sat 06:49:37 PM 35.8889 -112.2800 247° West 397 457 36,000  Level Los Angeles Center
Sat 06:50:51 PM 35.8467 -112.4058 248° West 401 461 36,000  Level Los Angeles Center
Sat 06:51:53 PM 35.7947 -112.5556 247° West 398 458 36,000  Level Los Angeles Center
Sat 06:52:54 PM 35.7519 -112.6806 247° West 400 460 36,000  Level Los Angeles Center
Sat 06:53:56 PM 35.7006 -112.8297 247° West 399 459 36,000  Level Los Angeles Center
Sat 06:54:58 PM 35.6597 -112.9483 247° West 398 458 36,000  Level Los Angeles Center
Sat 06:55:59 PM 35.6236 -113.0497 246° West 401 461 36,000  Level Los Angeles Center
Sat 06:57:01 PM 35.5619 -113.2244 247° West 399 459 36,000  Level Los Angeles Center
Sat 06:58:03 PM 35.5178 -113.3531 247° West 406 467 36,000  Level Los Angeles Center
Sat 06:59:04 PM 35.4722 -113.4814 246° West 406 467 36,000  Level Los Angeles Center
Sat 07:00:06 PM 35.4294 -113.6017 246° West 401 461 36,000  Level Los Angeles Center
Sat 07:01:08 PM 35.3850 -113.7250 246° West 400 460 36,000  Level Los Angeles Center
Sat 07:02:09 PM 35.3397 -113.8497 246° West 403 464 36,000  Level Los Angeles Center
Sat 07:03:11 PM 35.2911 -113.9831 246° West 404 465 36,000  Level Los Angeles Center
Sat 07:04:13 PM 35.2458 -114.1075 246° West 401 461 36,000  Level Los Angeles Center
Sat 07:05:14 PM 35.1922 -114.2567 246° West 400 460 36,000  Level Los Angeles Center
Sat 07:06:16 PM 35.1469 -114.3811 246° West 402 463 36,000  Level Los Angeles Center
Sat 07:07:30 PM 35.0931 -114.5317 246° West 403 464 36,000  Level Los Angeles Center
Sat 07:08:31 PM 35.0456 -114.6564 245° Southwest 404 465 36,000  Level Los Angeles Center
Sat 07:09:33 PM 35.0000 -114.7814 246° West 404 465 36,000  Level Los Angeles Center
Sat 07:10:35 PM 34.9553 -114.9025 246° West 394 453 36,000  Level Los Angeles Center
Sat 07:11:36 PM 34.9111 -115.0239 246° West 389 448 36,000  Level Los Angeles Center
Sat 07:12:38 PM 34.8642 -115.1467 245° Southwest 396 456 36,000  Level Los Angeles Center
Sat 07:13:40 PM 34.8097 -115.2942 246° West 397 457 36,000  Level Los Angeles Center
Sat 07:14:42 PM 34.7631 -115.4172 245° Southwest 399 459 36,000  Level Los Angeles Center
Sat 07:15:43 PM 34.7175 -115.5378 245° Southwest 393 452 36,000 -585 Level Los Angeles Center
Sat 07:16:45 PM 34.6744 -115.6511 245° Southwest 397 457 34,800 -1,258 Descending Los Angeles Center
Sat 07:17:47 PM 34.6378 -115.7503 246° West 402 463 33,400 -1,645 Descending Los Angeles Center
Sat 07:18:49 PM 34.5789 -115.9011 245° Southwest 411 473 31,400 -1,935 Descending Los Angeles Center
Sat 07:19:51 PM 34.5203 -116.0550 245° Southwest 420 483 29,400 -1,805 Descending Los Angeles Center
Sat 07:20:52 PM 34.4694 -116.1872 245° Southwest 430 495 27,700 -1,171 Descending Los Angeles Center
Sat 07:21:54 PM 34.4172 -116.3192 244° Southwest 434 499 27,000 -339 Descending Los Angeles Center
Sat 07:22:56 PM 34.3667 -116.4519 245° Southwest 435 501 27,000 -726 Level Los Angeles Center
Sat 07:23:58 PM 34.3147 -116.5836 244° Southwest 433 498 25,500 -1,742 Descending Los Angeles Center
Sat 07:25:00 PM 34.2656 -116.7097 245° Southwest 418 481 23,400 -1,867 Descending Los Angeles Center
Sat 07:26:13 PM 34.2156 -116.8347 244° Southwest 411 473 21,300 -1,941 Descending Los Angeles Center
Sat 07:27:16 PM 34.1478 -117.0042 244° Southwest 400 460 19,000 -1,423 Descending Los Angeles Center
Sat 07:27:50 PM 34.1167 -117.0667 239° Southwest 353 406 19,000 -702 Level Southern California TRACON
Sat 07:28:50 PM 34.0833 -117.1667 248° West 342 394 17,900 -1,774 Descending Southern California TRACON
Sat 07:29:45 PM 34.0500 -117.2667 248° West 346 398 15,600 -2,150 Descending Southern California TRACON
Sat 07:30:50 PM 34.0333 -117.3833 260° West 325 374 13,600 -1,810 Descending Southern California TRACON
Sat 07:31:51 PM 34.0167 -117.5000 260° West 318 366 11,800 -1,438 Descending Southern California TRACON
Sat 07:32:51 PM 34.0167 -117.6000 270° West 345 397 10,700 -900 Descending Southern California TRACON
Sat 07:33:51 PM 34.0000 -117.6833 256° West 280 322 10,000 -450 Descending Southern California TRACON
Sat 07:34:51 PM 34.0000 -117.7833 270° West 284 327 9,800 -400 Descending Southern California TRACON
Sat 07:35:51 PM 33.9833 -117.8667 256° West 248 285 9,200 -1,200 Descending Southern California TRACON
Sat 07:36:51 PM 33.9833 -117.9500 270° West 234 269 7,400 -1,450 Descending Southern California TRACON
Sat 07:37:51 PM 33.9667 -118.0167 253° West 223 257 6,300 -1,105 Descending Southern California TRACON
Sat 07:38:45 PM 33.9667 -118.0833 270° West 200 230 5,300 -1,158 Descending Southern California TRACON
Sat 07:39:45 PM 33.9667 -118.1500 270° West 196 226 4,100 -1,150 Descending Southern California TRACON
Sat 07:40:45 PM 33.9500 -118.2167 253° West 193 222 3,000 -1,100 Descending Southern California TRACON
Sat 07:41:45 PM 33.9500 -118.2833 270° West 193 222 1,900 -962 Descending Southern California TRACON
Sat 07:42:56 PM 33.9419 -118.3403 260° West 176 203 900 -722 Descending Los Angeles Center
Sat 07:43:58 PM 33.9381 -118.3903 265° West 155 178 300 -581 Descending Los Angeles Center

Login

Don't have an account? Register now (free) for customized features, flight alerts, and more!